createdAt,value
2018-11-03T00:01:01.663Z,33.23
2018-11-03T00:03:30.902Z,35.65
2018-11-03T00:06:00.014Z,33.35
2018-11-03T00:08:29.113Z,33.78
2018-11-03T00:10:58.302Z,33.80
2018-11-03T00:13:27.510Z,33.05
2018-11-03T00:15:56.892Z,33.28
2018-11-03T00:18:26.195Z,31.77
2018-11-03T00:20:55.509Z,31.73
2018-11-03T00:23:24.686Z,32.67
2018-11-03T00:25:53.779Z,31.15
2018-11-03T00:28:22.855Z,31.80
2018-11-03T00:30:52.086Z,31.93
2018-11-03T00:33:21.314Z,32.55
2018-11-03T00:35:50.623Z,33.28
2018-11-03T00:38:19.902Z,30.95
2018-11-03T00:40:49.286Z,32.53
2018-11-03T00:43:18.500Z,33.98
2018-11-03T00:45:48.631Z,32.88
2018-11-03T00:48:17.864Z,33.35
2018-11-03T00:50:46.931Z,35.10
2018-11-03T00:53:16.202Z,34.45
2018-11-03T00:55:45.258Z,34.00
2018-11-03T00:58:14.507Z,34.53
2018-11-03T01:00:43.707Z,34.50
2018-11-03T01:03:12.938Z,32.25
2018-11-03T01:05:42.173Z,34.00
2018-11-03T01:08:11.352Z,35.25
2018-11-03T01:10:40.934Z,34.60
2018-11-03T01:13:10.039Z,34.58
2018-11-03T01:15:39.433Z,33.80
2018-11-03T01:18:08.524Z,33.30
2018-11-03T01:20:37.731Z,35.40
2018-11-03T01:23:07.109Z,34.33
2018-11-03T01:25:36.339Z,34.13
2018-11-03T01:28:05.477Z,34.53
2018-11-03T01:30:34.738Z,34.43
2018-11-03T01:33:04.006Z,35.40
2018-11-03T01:35:33.230Z,33.00
2018-11-03T01:38:02.351Z,33.53
2018-11-03T01:40:31.558Z,32.45
2018-11-03T01:43:00.739Z,30.92
2018-11-03T01:45:29.854Z,31.65
2018-11-03T01:47:59.042Z,31.90
2018-11-03T01:50:28.170Z,29.82
2018-11-03T01:52:57.290Z,29.65
2018-11-03T01:55:26.435Z,32.10
2018-11-03T01:57:55.719Z,32.15
2018-11-03T02:00:24.821Z,32.50
2018-11-03T02:02:54.266Z,31.48
2018-11-03T02:05:23.332Z,33.48
2018-11-03T02:07:52.562Z,33.13
2018-11-03T02:10:21.898Z,35.05
2018-11-03T02:12:51.687Z,35.40
2018-11-03T02:15:20.966Z,34.92
2018-11-03T02:17:50.036Z,35.35
2018-11-03T02:20:19.240Z,35.50
2018-11-03T02:22:48.327Z,36.25
2018-11-03T02:25:17.542Z,33.85
2018-11-03T02:27:46.957Z,34.33
2018-11-03T02:30:16.126Z,34.75
2018-11-03T02:32:45.298Z,34.60
2018-11-03T02:35:14.516Z,34.73
2018-11-03T02:37:43.711Z,35.43
2018-11-03T02:40:13.666Z,36.93
2018-11-03T02:42:43.238Z,37.33
2018-11-03T02:45:12.675Z,36.80
2018-11-03T02:47:42.411Z,37.73
2018-11-03T02:50:13.476Z,35.05
2018-11-03T02:52:43.112Z,37.65
2018-11-03T02:55:12.248Z,31.90
2018-11-03T02:57:41.355Z,34.40
2018-11-03T03:00:11.532Z,36.70
2018-11-03T03:02:40.883Z,37.23
2018-11-03T03:05:11.035Z,37.40
2018-11-03T03:07:40.411Z,37.88
2018-11-03T03:10:11.056Z,38.33
2018-11-03T03:12:40.355Z,38.45
2018-11-03T03:15:11.248Z,39.63
2018-11-03T03:17:40.951Z,39.33
2018-11-03T03:20:11.315Z,38.42
2018-11-03T03:22:40.417Z,38.13
2018-11-03T03:25:10.397Z,39.98
2018-11-03T03:27:39.467Z,39.18
2018-11-03T03:30:09.572Z,39.80
2018-11-03T03:32:38.720Z,39.18
2018-11-03T03:35:08.138Z,40.43
2018-11-03T03:37:37.210Z,41.18
2018-11-03T03:40:07.424Z,39.15
2018-11-03T03:42:36.579Z,38.60
2018-11-03T03:45:06.259Z,38.50
2018-11-03T03:47:35.303Z,38.85
2018-11-03T03:50:04.557Z,38.28
2018-11-03T03:52:33.802Z,40.43
2018-11-03T03:55:03.208Z,41.02
2018-11-03T03:57:32.542Z,39.95
2018-11-03T04:00:01.649Z,39.48
2018-11-03T04:02:30.835Z,39.73
2018-11-03T04:04:59.939Z,41.45
2018-11-03T04:07:29.103Z,40.33
2018-11-03T04:09:58.132Z,41.45
2018-11-03T04:12:27.136Z,41.48
2018-11-03T04:14:56.276Z,40.25
2018-11-03T04:17:25.616Z,41.25
2018-11-03T04:19:55.066Z,41.55
2018-11-03T04:22:24.818Z,43.05
2018-11-03T04:24:53.875Z,43.63
2018-11-03T04:27:22.933Z,43.28
2018-11-03T04:29:52.349Z,42.40
2018-11-03T04:32:21.971Z,44.45
2018-11-03T04:34:50.949Z,42.60
2018-11-03T04:37:20.131Z,45.08
2018-11-03T04:39:49.307Z,44.42
2018-11-03T04:42:18.521Z,42.85
2018-11-03T04:44:48.097Z,45.52
2018-11-03T04:47:17.247Z,42.60
2018-11-03T04:49:46.634Z,44.13
2018-11-03T04:52:15.743Z,43.05
2018-11-03T04:54:44.936Z,43.75
2018-11-03T04:57:14.150Z,44.42
2018-11-03T04:59:43.453Z,45.33
2018-11-03T05:02:12.838Z,43.63
2018-11-03T05:04:42.022Z,45.05
2018-11-03T05:07:11.317Z,46.10
2018-11-03T05:09:40.718Z,45.05
2018-11-03T05:12:09.889Z,44.33
2018-11-03T05:14:39.118Z,45.90
2018-11-03T05:17:08.588Z,45.78
2018-11-03T05:19:37.754Z,45.80
2018-11-03T05:22:07.283Z,43.83
2018-11-03T05:24:36.470Z,42.40
2018-11-03T05:27:05.753Z,40.78
2018-11-03T05:29:34.872Z,40.48
2018-11-03T05:32:04.146Z,40.25
2018-11-03T05:34:33.382Z,40.12
2018-11-03T05:37:02.650Z,40.30
2018-11-03T05:39:31.936Z,39.85
2018-11-03T05:42:01.043Z,38.85
2018-11-03T05:44:30.166Z,38.48
2018-11-03T05:46:59.328Z,36.98
2018-11-03T05:49:28.451Z,36.48
2018-11-03T05:51:57.635Z,35.38
2018-11-03T05:54:26.823Z,37.53
2018-11-03T05:56:56.056Z,35.73
2018-11-03T05:59:25.418Z,33.75
2018-11-03T06:01:54.655Z,34.00
2018-11-03T06:04:23.787Z,32.58
2018-11-03T06:06:52.843Z,34.43
2018-11-03T06:09:22.134Z,32.65
2018-11-03T06:11:51.562Z,29.42
2018-11-03T06:14:20.846Z,30.55
2018-11-03T06:16:49.914Z,30.25
2018-11-03T06:19:19.968Z,30.68
2018-11-03T06:21:49.329Z,31.23
2018-11-03T06:24:18.447Z,31.70
2018-11-03T06:26:47.701Z,31.55
2018-11-03T06:29:16.894Z,32.63
2018-11-03T06:31:45.878Z,31.37
2018-11-03T06:34:15.019Z,30.97
2018-11-03T06:36:44.282Z,32.25
2018-11-03T06:39:14.209Z,32.40
2018-11-03T06:41:43.569Z,33.23
2018-11-03T06:44:12.856Z,33.18
2018-11-03T06:46:42.255Z,34.35
2018-11-03T06:49:16.446Z,32.55
2018-11-03T06:51:46.434Z,31.50
2018-11-03T06:54:16.061Z,34.35
2018-11-03T06:56:46.048Z,37.98
2018-11-03T06:59:15.534Z,33.63
2018-11-03T07:01:44.655Z,34.18
2018-11-03T07:04:13.830Z,35.92
2018-11-03T07:06:43.044Z,33.08
2018-11-03T07:09:12.979Z,32.55
2018-11-03T07:11:42.612Z,33.53
2018-11-03T07:14:11.499Z,31.52
2018-11-03T07:16:40.650Z,28.25
2018-11-03T07:19:09.753Z,24.82
2018-11-03T07:21:39.111Z,27.50
2018-11-03T07:24:08.363Z,26.52
2018-11-03T07:26:37.634Z,27.82
2018-11-03T07:29:06.799Z,26.20
2018-11-03T07:31:35.863Z,29.07
2018-11-03T07:34:04.964Z,26.40
2018-11-03T07:36:34.151Z,27.10
2018-11-03T07:39:03.579Z,26.95
2018-11-03T07:41:32.636Z,28.62
2018-11-03T07:44:02.979Z,25.57
2018-11-03T07:46:32.074Z,24.95
2018-11-03T07:49:01.745Z,24.80
2018-11-03T07:51:30.650Z,27.55
2018-11-03T07:53:59.750Z,27.40
2018-11-03T07:56:29.316Z,27.05
2018-11-03T07:58:58.658Z,27.62
2018-11-03T08:01:27.963Z,27.82
2018-11-03T08:03:57.114Z,28.15
2018-11-03T08:06:26.706Z,28.67
2018-11-03T08:08:56.010Z,29.35
2018-11-03T08:11:25.103Z,31.30
2018-11-03T08:13:54.302Z,32.10
2018-11-03T08:16:23.458Z,30.62
2018-11-03T08:18:52.793Z,31.85
2018-11-03T08:21:22.031Z,30.02
2018-11-03T08:23:52.127Z,31.33
2018-11-03T08:26:21.189Z,31.77
2018-11-03T08:28:50.398Z,27.35
2018-11-03T08:31:19.733Z,28.42
2018-11-03T08:33:48.905Z,28.00
2018-11-03T08:36:18.099Z,28.92
2018-11-03T08:38:47.308Z,25.62
2018-11-03T08:41:16.859Z,27.02
2018-11-03T08:43:45.911Z,25.02
2018-11-03T08:46:15.181Z,25.08
2018-11-03T08:48:44.291Z,25.12
2018-11-03T08:51:13.359Z,24.27
2018-11-03T08:53:42.587Z,24.95
2018-11-03T08:56:11.585Z,24.60
2018-11-03T08:58:40.790Z,22.60
2018-11-03T09:01:09.893Z,19.62
2018-11-03T09:03:38.991Z,20.77
2018-11-03T09:06:08.323Z,17.52
2018-11-03T09:08:37.446Z,18.32
2018-11-03T09:11:06.602Z,23.77
2018-11-03T09:13:36.218Z,21.00
2018-11-03T09:16:05.397Z,25.45
2018-11-03T09:18:34.583Z,26.57
2018-11-03T09:21:04.042Z,24.00
2018-11-03T09:23:33.307Z,23.85
2018-11-03T09:26:02.583Z,22.80
2018-11-03T09:28:31.634Z,22.45
2018-11-03T09:31:01.463Z,22.17
2018-11-03T09:33:30.578Z,22.85
2018-11-03T09:35:59.851Z,41.65
2018-11-03T09:38:29.146Z,21.40
2018-11-03T09:40:58.494Z,21.70
2018-11-03T09:43:28.235Z,19.40
2018-11-03T09:45:57.336Z,19.00
2018-11-03T09:48:26.555Z,19.98
2018-11-03T09:50:55.845Z,20.68
2018-11-03T09:53:25.227Z,19.92
2018-11-03T09:55:54.510Z,17.00
2018-11-03T09:58:23.882Z,18.30
2018-11-03T10:00:53.120Z,18.50
2018-11-03T10:03:22.421Z,18.05
2018-11-03T10:05:51.862Z,17.23
2018-11-03T10:08:21.017Z,19.75
2018-11-03T10:10:50.236Z,20.77
2018-11-03T10:13:19.532Z,14.68
2018-11-03T10:15:48.674Z,17.32
2018-11-03T10:18:17.951Z,18.12
2018-11-03T10:20:47.710Z,17.50
2018-11-03T10:23:17.010Z,15.93
2018-11-03T10:25:46.362Z,14.85
2018-11-03T10:28:15.759Z,14.23
2018-11-03T10:30:45.030Z,14.68
2018-11-03T10:33:14.283Z,15.10
2018-11-03T10:35:43.683Z,11.15
2018-11-03T10:38:13.008Z,11.65
2018-11-03T10:40:42.169Z,10.88
2018-11-03T10:43:11.614Z,10.40
2018-11-03T10:45:40.942Z,9.40
2018-11-03T10:48:10.704Z,9.10
2018-11-03T10:50:40.038Z,8.95
2018-11-03T10:53:09.462Z,9.65
2018-11-03T10:55:38.672Z,9.70
2018-11-03T10:58:08.007Z,11.12
2018-11-03T11:00:42.095Z,9.93
2018-11-03T11:03:16.767Z,11.08
2018-11-03T11:05:51.195Z,9.38
2018-11-03T11:08:25.887Z,9.05
2018-11-03T11:11:00.139Z,9.40
2018-11-03T11:13:31.067Z,9.05
2018-11-03T11:16:00.270Z,9.33
2018-11-03T11:18:29.522Z,7.30
2018-11-03T11:20:59.062Z,8.80
2018-11-03T11:23:28.432Z,8.55
2018-11-03T11:25:57.470Z,8.08
2018-11-03T11:28:27.110Z,9.05
2018-11-03T11:30:56.235Z,8.38
2018-11-03T11:33:25.331Z,8.78
2018-11-03T11:35:54.787Z,8.43
2018-11-03T11:38:23.795Z,7.90
2018-11-03T11:40:52.941Z,7.58
2018-11-03T11:43:22.243Z,4.17
2018-11-03T11:45:51.391Z,5.22
2018-11-03T11:48:20.443Z,5.85
2018-11-03T11:50:50.402Z,4.60
2018-11-03T11:53:19.675Z,4.37
2018-11-03T11:55:48.962Z,4.78
2018-11-03T11:58:18.304Z,5.17
2018-11-03T12:00:47.568Z,4.83
2018-11-03T12:03:16.574Z,3.87
2018-11-03T12:05:45.975Z,4.55
2018-11-03T12:08:16.087Z,3.52
2018-11-03T12:10:45.291Z,2.70
2018-11-03T12:13:14.861Z,2.80
2018-11-03T12:15:44.063Z,3.25
2018-11-03T12:18:13.289Z,1.62
2018-11-03T12:20:42.646Z,1.25
2018-11-03T12:23:11.595Z,1.35
2018-11-03T12:25:40.926Z,1.02
2018-11-03T12:28:10.082Z,0.70
2018-11-03T12:30:39.234Z,0.95
2018-11-03T12:33:08.305Z,1.22
2018-11-03T12:35:37.746Z,0.68
2018-11-03T12:38:07.163Z,0.93
2018-11-03T12:40:36.267Z,0.80
2018-11-03T12:43:05.534Z,0.70
2018-11-03T12:45:34.714Z,1.10
2018-11-03T12:48:04.020Z,0.98
2018-11-03T12:50:33.289Z,0.60
2018-11-03T12:53:02.484Z,0.65
2018-11-03T12:55:32.007Z,0.60
2018-11-03T12:58:01.079Z,0.60
2018-11-03T13:00:30.189Z,1.00
2018-11-03T13:02:59.618Z,0.98
2018-11-03T13:05:28.901Z,1.27
2018-11-03T13:07:58.099Z,1.52
2018-11-03T13:10:27.402Z,1.70
2018-11-03T13:12:56.521Z,1.90
2018-11-03T13:15:25.710Z,1.37
2018-11-03T13:17:55.225Z,2.47
2018-11-03T13:20:24.277Z,1.70
2018-11-03T13:22:53.433Z,1.47
2018-11-03T13:25:22.840Z,1.30
2018-11-03T13:27:52.068Z,0.80
2018-11-03T13:30:21.295Z,1.42
2018-11-03T13:32:50.912Z,1.10
2018-11-03T13:35:20.192Z,1.20
2018-11-03T13:37:49.216Z,1.02
2018-11-03T13:40:18.688Z,1.40
2018-11-03T13:42:47.905Z,1.20
2018-11-03T13:45:17.043Z,1.20
2018-11-03T13:47:46.794Z,1.20
2018-11-03T13:50:17.034Z,1.30
2018-11-03T13:52:47.346Z,1.42
2018-11-03T13:55:16.892Z,0.98
2018-11-03T13:57:46.826Z,1.45
2018-11-03T14:00:17.883Z,1.50
2018-11-03T14:02:47.878Z,1.45
2018-11-03T14:05:17.118Z,2.25
2018-11-03T14:07:46.350Z,2.35
2018-11-03T14:10:16.539Z,2.27
2018-11-03T14:12:46.652Z,2.52
2018-11-03T14:15:17.137Z,2.67
2018-11-03T14:17:46.350Z,3.92
2018-11-03T14:20:16.321Z,4.20
2018-11-03T14:22:46.083Z,3.35
2018-11-03T14:25:17.529Z,3.85
2018-11-03T14:27:47.484Z,4.92
2018-11-03T14:30:16.846Z,4.42
2018-11-03T14:32:46.135Z,4.20
2018-11-03T14:35:15.888Z,4.58
2018-11-03T14:37:44.922Z,4.47
2018-11-03T14:40:15.750Z,4.92
2018-11-03T14:42:45.358Z,3.75
2018-11-03T14:45:15.452Z,4.08
2018-11-03T14:47:44.622Z,4.47
2018-11-03T14:50:13.787Z,4.35
2018-11-03T14:52:43.698Z,4.85
2018-11-03T14:55:13.564Z,4.35
2018-11-03T14:57:42.802Z,5.03
2018-11-03T15:00:14.199Z,4.67
2018-11-03T15:02:43.460Z,4.97
2018-11-03T15:05:13.233Z,5.08
2018-11-03T15:07:42.308Z,5.65
2018-11-03T15:10:12.502Z,5.67
2018-11-03T15:12:42.764Z,6.72
2018-11-03T15:15:13.407Z,7.40
2018-11-03T15:17:42.766Z,6.15
2018-11-03T15:20:12.377Z,6.72
2018-11-03T15:22:42.354Z,8.20
2018-11-03T15:25:11.425Z,7.05
2018-11-03T15:27:41.037Z,7.05
2018-11-03T15:30:11.703Z,9.00
2018-11-03T15:32:41.327Z,7.40
2018-11-03T15:35:11.260Z,7.20
2018-11-03T15:37:40.779Z,7.30
2018-11-03T15:40:11.784Z,6.65
2018-11-03T15:42:40.906Z,7.92
2018-11-03T15:45:13.593Z,8.73
2018-11-03T15:47:43.354Z,8.60
2018-11-03T15:50:13.310Z,8.75
2018-11-03T15:52:42.976Z,8.63
2018-11-03T15:55:12.076Z,8.28
2018-11-03T15:57:41.960Z,9.48
2018-11-03T16:00:14.227Z,7.75
2018-11-03T16:02:43.340Z,8.93
2018-11-03T16:05:12.460Z,9.75
2018-11-03T16:07:41.874Z,10.85
2018-11-03T16:10:11.484Z,10.10
2018-11-03T16:12:40.996Z,9.00
2018-11-03T16:15:11.468Z,8.55
2018-11-03T16:17:41.370Z,8.30
2018-11-03T16:20:11.700Z,9.88
2018-11-03T16:22:41.457Z,10.75
2018-11-03T16:25:10.699Z,10.88
2018-11-03T16:27:40.206Z,10.88
2018-11-03T16:30:11.603Z,10.18
2018-11-03T16:32:41.079Z,13.00
2018-11-03T16:35:09.963Z,12.93
2018-11-03T16:37:39.507Z,12.90
2018-11-03T16:40:10.151Z,12.40
2018-11-03T16:42:39.405Z,13.72
2018-11-03T16:45:10.411Z,11.68
2018-11-03T16:47:39.566Z,13.55
2018-11-03T16:50:09.991Z,13.48
2018-11-03T16:52:39.705Z,11.55
2018-11-03T16:55:09.395Z,13.20
2018-11-03T16:57:38.990Z,13.95
2018-11-03T17:00:10.301Z,11.85
2018-11-03T17:02:39.582Z,12.40
2018-11-03T17:05:10.006Z,13.10
2018-11-03T17:07:39.547Z,13.28
2018-11-03T17:10:11.041Z,13.45
2018-11-03T17:12:41.476Z,12.43
2018-11-03T17:15:11.222Z,9.88
2018-11-03T17:17:40.450Z,11.25
2018-11-03T17:20:10.398Z,14.95
2018-11-03T17:22:39.597Z,14.13
2018-11-03T17:25:10.249Z,13.85
2018-11-03T17:27:39.617Z,13.90
2018-11-03T17:30:10.453Z,14.20
2018-11-03T17:32:39.772Z,12.98
2018-11-03T17:35:09.251Z,15.50
2018-11-03T17:37:38.558Z,15.72
2018-11-03T17:40:08.843Z,16.32
2018-11-03T17:42:38.398Z,16.23
2018-11-03T17:45:08.535Z,16.75
2018-11-03T17:47:37.859Z,10.68
2018-11-03T17:50:08.403Z,14.15
2018-11-03T17:52:37.583Z,14.28
2018-11-03T17:55:07.352Z,20.40
2018-11-03T17:57:36.996Z,14.93
2018-11-03T18:00:09.179Z,20.23
2018-11-03T18:02:38.491Z,21.23
2018-11-03T18:05:07.533Z,20.37
2018-11-03T18:07:36.487Z,21.25
2018-11-03T18:10:06.199Z,25.35
2018-11-03T18:12:35.557Z,25.52
2018-11-03T18:15:04.958Z,23.70
2018-11-03T18:17:34.395Z,20.55
2018-11-03T18:20:03.791Z,17.82
2018-11-03T18:22:33.082Z,28.62
2018-11-03T18:25:02.763Z,31.20
2018-11-03T18:27:31.894Z,24.47
2018-11-03T18:30:01.053Z,25.50
2018-11-03T18:32:30.562Z,35.10
2018-11-03T18:34:59.893Z,37.38
2018-11-03T18:37:29.075Z,33.15
2018-11-03T18:39:58.552Z,28.32
2018-11-03T18:42:27.610Z,31.27
2018-11-03T18:44:56.899Z,34.58
2018-11-03T18:47:26.310Z,35.63
2018-11-03T18:49:55.421Z,41.13
2018-11-03T18:52:24.594Z,36.15
2018-11-03T18:54:54.158Z,23.98
2018-11-03T18:57:23.303Z,39.08
2018-11-03T18:59:53.115Z,36.38
2018-11-03T19:02:23.475Z,41.18
2018-11-03T19:04:52.718Z,40.90
2018-11-03T19:07:21.869Z,39.20
2018-11-03T19:09:51.333Z,34.60
2018-11-03T19:12:20.446Z,38.73
2018-11-03T19:14:49.619Z,36.35
2018-11-03T19:17:18.886Z,37.10
2018-11-03T19:19:47.998Z,37.85
2018-11-03T19:22:17.110Z,38.88
2018-11-03T19:24:46.547Z,42.00
2018-11-03T19:27:15.647Z,39.00
2018-11-03T19:29:44.881Z,40.60
2018-11-03T19:32:14.465Z,24.63
2018-11-03T19:34:43.746Z,41.40
2018-11-03T19:37:13.063Z,39.42
2018-11-03T19:39:42.307Z,37.40
2018-11-03T19:42:11.458Z,31.90
2018-11-03T19:44:40.829Z,36.98
2018-11-03T19:47:10.117Z,38.00
2018-11-03T19:49:39.428Z,28.17
2018-11-03T19:52:08.653Z,23.83
2018-11-03T19:54:38.175Z,34.55
2018-11-03T19:57:07.294Z,33.60
2018-11-03T19:59:36.455Z,38.80
2018-11-03T20:02:05.822Z,29.67
2018-11-03T20:04:35.369Z,40.12
2018-11-03T20:07:04.634Z,34.98
2018-11-03T20:09:33.870Z,31.20
2018-11-03T20:12:03.301Z,38.25
2018-11-03T20:14:32.551Z,32.50
2018-11-03T20:17:01.907Z,34.98
2018-11-03T20:19:30.975Z,35.52
2018-11-03T20:22:00.162Z,38.78
2018-11-03T20:24:29.742Z,38.65
2018-11-03T20:26:58.896Z,30.68
2018-11-03T20:29:28.092Z,39.10
2018-11-03T20:31:57.751Z,33.90
2018-11-03T20:34:26.817Z,39.65
2018-11-03T20:36:56.059Z,24.30
2018-11-03T20:39:25.463Z,37.30
2018-11-03T20:41:54.797Z,36.03
2018-11-03T20:44:23.879Z,37.35
2018-11-03T20:46:53.370Z,36.75
2018-11-03T20:49:22.554Z,36.85
2018-11-03T20:51:51.754Z,35.68
2018-11-03T20:54:21.304Z,35.85
2018-11-03T20:56:50.589Z,31.60
2018-11-03T20:59:19.609Z,31.95
2018-11-03T21:01:49.106Z,30.17
2018-11-03T21:04:18.442Z,38.70
2018-11-03T21:06:47.574Z,36.90
2018-11-03T21:09:17.224Z,33.05
2018-11-03T21:11:46.313Z,35.50
2018-11-03T21:14:15.602Z,36.98
2018-11-03T21:16:44.931Z,35.17
2018-11-03T21:19:14.206Z,38.28
2018-11-03T21:21:43.337Z,35.58
2018-11-03T21:24:12.721Z,35.28
2018-11-03T21:26:42.205Z,37.48
2018-11-03T21:29:11.291Z,36.13
2018-11-03T21:31:40.543Z,34.25
2018-11-03T21:34:09.676Z,35.68
2018-11-03T21:36:38.897Z,35.48
2018-11-03T21:39:09.928Z,34.15
2018-11-03T21:41:39.145Z,31.82
2018-11-03T21:44:08.427Z,37.00
2018-11-03T21:46:37.875Z,35.38
2018-11-03T21:49:07.244Z,35.95
2018-11-03T21:51:36.418Z,36.58
2018-11-03T21:54:06.027Z,35.00
2018-11-03T21:56:35.174Z,36.35
2018-11-03T21:59:04.460Z,32.50
2018-11-03T22:01:33.551Z,34.75
2018-11-03T22:04:02.755Z,34.83
2018-11-03T22:06:31.949Z,35.10
2018-11-03T22:09:01.730Z,35.08
2018-11-03T22:11:30.838Z,34.60
2018-11-03T22:13:59.874Z,35.95
2018-11-03T22:16:29.950Z,34.20
2018-11-03T22:18:59.229Z,35.63
2018-11-03T22:21:28.711Z,33.80
2018-11-03T22:23:58.208Z,34.98
2018-11-03T22:26:27.479Z,32.63
2018-11-03T22:28:56.938Z,28.45
2018-11-03T22:31:26.271Z,25.97
2018-11-03T22:33:55.381Z,28.25
2018-11-03T22:36:24.407Z,29.27
2018-11-03T22:38:53.758Z,28.40
2018-11-03T22:41:22.796Z,26.62
2018-11-03T22:43:51.967Z,28.95
2018-11-03T22:46:21.238Z,25.97
2018-11-03T22:48:50.497Z,26.40
2018-11-03T22:51:19.729Z,26.62
2018-11-03T22:53:49.218Z,27.00
2018-11-03T22:56:18.496Z,24.52
2018-11-03T22:58:47.407Z,25.23
2018-11-03T23:01:16.739Z,23.42
2018-11-03T23:03:45.976Z,22.65
2018-11-03T23:06:15.162Z,19.90
2018-11-03T23:08:44.275Z,22.48
2018-11-03T23:11:13.572Z,19.52
2018-11-03T23:13:42.915Z,18.57
2018-11-03T23:16:12.438Z,16.50
2018-11-03T23:18:41.528Z,19.60
2018-11-03T23:21:10.504Z,18.92
2018-11-03T23:23:39.796Z,21.17
2018-11-03T23:26:08.951Z,19.80
2018-11-03T23:28:38.072Z,18.60
2018-11-03T23:31:07.361Z,15.03
2018-11-03T23:33:36.460Z,12.98
2018-11-03T23:36:05.601Z,18.87
2018-11-03T23:38:34.715Z,15.93
2018-11-03T23:41:03.866Z,18.35
2018-11-03T23:43:32.953Z,19.37
2018-11-03T23:46:02.098Z,20.68
2018-11-03T23:48:31.249Z,19.02
2018-11-03T23:51:00.455Z,19.15
2018-11-03T23:53:29.811Z,19.95
2018-11-03T23:55:59.068Z,19.73
2018-11-03T23:58:28.165Z,21.05
